TKJ4316 LTAC-LTCW
Flight info
| Callsign | TKJ4316 |
|---|---|
| Flight time | 1h 21m |
| Altitude | 27000 |
| Route | GOBIT L614 MARTI G8 GEM/N0464F370 UL614 BULUT UG8 EZS UT36 ULTED UT301 INLAP |
| Aircraft | B738/M-SDE2E3FGHIRWXY/LB1 |
Departure
| Time | 2026-05-05 11:49 |
|---|---|
| Airport | Esenboğa International Airport (LTAC) |
Arrival
| Time | 2026-05-05 13:11 |
|---|---|
| Airport | Hakkari Yüksekova Airport (LTCW) |
| Time | Latitude | Longitude | Altitude | Speed | Heading |
|---|---|---|---|---|---|
| 2026-05-05 11:22 | 40.11556 | 32.99034 | 3112 ft | 0 kts | 138° |
| 2026-05-05 11:33 | 40.11568 | 32.99019 | 3112 ft | 4 kts | 138° |
| 2026-05-05 11:34 | 40.11585 | 32.99000 | 3112 ft | 4 kts | 129° |
| 2026-05-05 11:34 | 40.11593 | 32.98972 | 3112 ft | 4 kts | 73° |
| 2026-05-05 11:34 | 40.11581 | 32.98944 | 3112 ft | 3 kts | 44° |
| 2026-05-05 11:34 | 40.11579 | 32.98941 | 3112 ft | 1 kts | 43° |
| 2026-05-05 11:40 | 40.11580 | 32.98943 | 3112 ft | 1 kts | 43° |
| 2026-05-05 11:40 | 40.11585 | 32.98949 | 3112 ft | 0 kts | 41° |
| 2026-05-05 11:41 | 40.11587 | 32.98949 | 3112 ft | 1 kts | 31° |
| 2026-05-05 11:41 | 40.11606 | 32.98949 | 3112 ft | 5 kts | 347° |
| 2026-05-05 11:41 | 40.11642 | 32.98913 | 3112 ft | 8 kts | 310° |
| 2026-05-05 11:41 | 40.11687 | 32.98889 | 3112 ft | 8 kts | 22° |
| 2026-05-05 11:42 | 40.11731 | 32.98930 | 3112 ft | 8 kts | 37° |
| 2026-05-05 11:42 | 40.11790 | 32.98988 | 3112 ft | 13 kts | 37° |
| 2026-05-05 11:42 | 40.11868 | 32.99063 | 3113 ft | 14 kts | 36° |
| 2026-05-05 11:42 | 40.11944 | 32.99136 | 3113 ft | 13 kts | 36° |
| 2026-05-05 11:43 | 40.12017 | 32.99206 | 3114 ft | 13 kts | 37° |
| 2026-05-05 11:43 | 40.12088 | 32.99274 | 3116 ft | 12 kts | 36° |
| 2026-05-05 11:43 | 40.12157 | 32.99340 | 3116 ft | 12 kts | 36° |
| 2026-05-05 11:43 | 40.12239 | 32.99418 | 3117 ft | 17 kts | 36° |
| 2026-05-05 11:44 | 40.12342 | 32.99516 | 3118 ft | 19 kts | 37° |
| 2026-05-05 11:44 | 40.12448 | 32.99620 | 3120 ft | 19 kts | 36° |
| 2026-05-05 11:44 | 40.12553 | 32.99716 | 3121 ft | 18 kts | 36° |
| 2026-05-05 11:44 | 40.12652 | 32.99811 | 3122 ft | 17 kts | 36° |
| 2026-05-05 11:45 | 40.12748 | 32.99905 | 3122 ft | 17 kts | 37° |
| 2026-05-05 11:45 | 40.12840 | 32.99993 | 3123 ft | 16 kts | 36° |
| 2026-05-05 11:45 | 40.12929 | 33.00078 | 3120 ft | 16 kts | 36° |
| 2026-05-05 11:45 | 40.13015 | 33.00160 | 3124 ft | 15 kts | 36° |
| 2026-05-05 11:46 | 40.13097 | 33.00238 | 3124 ft | 14 kts | 36° |
| 2026-05-05 11:46 | 40.13176 | 33.00313 | 3123 ft | 14 kts | 36° |
| 2026-05-05 11:46 | 40.13263 | 33.00395 | 3125 ft | 18 kts | 36° |
| 2026-05-05 11:46 | 40.13374 | 33.00502 | 3128 ft | 22 kts | 36° |
| 2026-05-05 11:47 | 40.13504 | 33.00626 | 3130 ft | 25 kts | 36° |
| 2026-05-05 11:47 | 40.13649 | 33.00766 | 3132 ft | 28 kts | 36° |
| 2026-05-05 11:47 | 40.13806 | 33.00915 | 3133 ft | 27 kts | 36° |
| 2026-05-05 11:47 | 40.13952 | 33.01051 | 3134 ft | 25 kts | 31° |
| 2026-05-05 11:48 | 40.14166 | 33.00833 | 3135 ft | 21 kts | 307° |
| 2026-05-05 11:48 | 40.14215 | 33.00706 | 3135 ft | 11 kts | 251° |
| 2026-05-05 11:48 | 40.14116 | 33.00600 | 3134 ft | 40 kts | 217° |
| 2026-05-05 11:49 | 40.13695 | 33.00197 | 3130 ft | 108 kts | 216° |
| 2026-05-05 11:49 | 40.12930 | 32.99453 | 3126 ft | 164 kts | 218° |
| 2026-05-05 11:49 | 40.11983 | 32.98532 | 3733 ft | 169 kts | 219° |
| 2026-05-05 11:49 | 40.11017 | 32.97609 | 4447 ft | 180 kts | 218° |
| 2026-05-05 11:50 | 40.09931 | 32.96589 | 4904 ft | 204 kts | 216° |
| 2026-05-05 11:50 | 40.08701 | 32.95454 | 5170 ft | 229 kts | 217° |
| 2026-05-05 11:50 | 40.07340 | 32.94181 | 5414 ft | 251 kts | 216° |
| 2026-05-05 11:50 | 40.05895 | 32.92818 | 6065 ft | 258 kts | 217° |
| 2026-05-05 11:51 | 40.04465 | 32.91483 | 7090 ft | 250 kts | 216° |
| 2026-05-05 11:51 | 40.03024 | 32.90142 | 7766 ft | 259 kts | 217° |
| 2026-05-05 11:51 | 40.01429 | 32.88996 | 8420 ft | 268 kts | 197° |
| 2026-05-05 11:51 | 39.99562 | 32.88866 | 9050 ft | 278 kts | 167° |
| 2026-05-05 11:52 | 39.97748 | 32.89914 | 9488 ft | 292 kts | 144° |
| 2026-05-05 11:52 | 39.96172 | 32.91552 | 10374 ft | 288 kts | 138° |
| 2026-05-05 11:52 | 39.94595 | 32.93252 | 10794 ft | 306 kts | 141° |
| 2026-05-05 11:52 | 39.92828 | 32.94968 | 11056 ft | 328 kts | 143° |
| 2026-05-05 11:53 | 39.90906 | 32.96729 | 11308 ft | 347 kts | 146° |
| 2026-05-05 11:53 | 39.88665 | 32.98047 | 11730 ft | 362 kts | 167° |
| 2026-05-05 11:53 | 39.86131 | 32.98183 | 12335 ft | 369 kts | 185° |
| 2026-05-05 11:53 | 39.83570 | 32.97780 | 13109 ft | 372 kts | 187° |
| 2026-05-05 11:54 | 39.81856 | 32.97551 | 13540 ft | 377 kts | 182° |
| 2026-05-05 11:54 | 39.79259 | 32.98004 | 14153 ft | 382 kts | 159° |
| 2026-05-05 11:54 | 39.76991 | 32.99798 | 14737 ft | 384 kts | 134° |
| 2026-05-05 11:54 | 39.74904 | 33.03487 | 15265 ft | 392 kts | 120° |
| 2026-05-05 11:55 | 39.73460 | 33.06494 | 16058 ft | 391 kts | 120° |
| 2026-05-05 11:55 | 39.72099 | 33.09542 | 16870 ft | 390 kts | 112° |
| 2026-05-05 11:55 | 39.71491 | 33.11783 | 17334 ft | 390 kts | 101° |
| 2026-05-05 11:55 | 39.71200 | 33.15276 | 17986 ft | 391 kts | 86° |
| 2026-05-05 11:56 | 39.71471 | 33.18785 | 18627 ft | 392 kts | 80° |
| 2026-05-05 11:56 | 39.71821 | 33.22311 | 19237 ft | 395 kts | 80° |
| 2026-05-05 11:56 | 39.72164 | 33.25864 | 19855 ft | 397 kts | 80° |
| 2026-05-05 11:56 | 39.72498 | 33.29432 | 20463 ft | 400 kts | 79° |
| 2026-05-05 11:57 | 39.72826 | 33.33035 | 21051 ft | 403 kts | 79° |
| 2026-05-05 11:57 | 39.73152 | 33.36671 | 21613 ft | 406 kts | 79° |
| 2026-05-05 11:57 | 39.73470 | 33.40286 | 22156 ft | 409 kts | 79° |
| 2026-05-05 11:57 | 39.73791 | 33.43968 | 22707 ft | 412 kts | 79° |
| 2026-05-05 11:58 | 39.74118 | 33.47728 | 23253 ft | 415 kts | 78° |
| 2026-05-05 11:58 | 39.74438 | 33.51418 | 23732 ft | 417 kts | 78° |
| 2026-05-05 11:58 | 39.74766 | 33.55225 | 24162 ft | 421 kts | 78° |
| 2026-05-05 11:58 | 39.75092 | 33.59015 | 24561 ft | 424 kts | 78° |
| 2026-05-05 11:59 | 39.75419 | 33.62833 | 24964 ft | 427 kts | 78° |
| 2026-05-05 11:59 | 39.75744 | 33.66633 | 25356 ft | 430 kts | 78° |
| 2026-05-05 11:59 | 39.76073 | 33.70510 | 25785 ft | 432 kts | 78° |
| 2026-05-05 11:59 | 39.76402 | 33.74399 | 26223 ft | 434 kts | 78° |
| 2026-05-05 12:00 | 39.76736 | 33.78364 | 26612 ft | 436 kts | 78° |
| 2026-05-05 12:00 | 39.77068 | 33.82295 | 26948 ft | 440 kts | 78° |
| 2026-05-05 12:00 | 39.77262 | 33.86247 | 27293 ft | 448 kts | 85° |
| 2026-05-05 12:00 | 39.76934 | 33.90330 | 27654 ft | 458 kts | 95° |
| 2026-05-05 12:01 | 39.76122 | 33.94374 | 28008 ft | 468 kts | 103° |
| 2026-05-05 12:01 | 39.74978 | 33.98360 | 28344 ft | 472 kts | 105° |
| 2026-05-05 12:01 | 39.73802 | 34.02350 | 28645 ft | 475 kts | 105° |
| 2026-05-05 12:01 | 39.72621 | 34.06370 | 29012 ft | 477 kts | 105° |
| 2026-05-05 12:02 | 39.71449 | 34.10400 | 29391 ft | 478 kts | 105° |
| 2026-05-05 12:02 | 39.70286 | 34.14444 | 29734 ft | 479 kts | 104° |
| 2026-05-05 12:02 | 39.69127 | 34.18500 | 30132 ft | 479 kts | 104° |
| 2026-05-05 12:02 | 39.67972 | 34.22548 | 30503 ft | 478 kts | 104° |
| 2026-05-05 12:03 | 39.66816 | 34.26595 | 30820 ft | 478 kts | 105° |
| 2026-05-05 12:03 | 39.65659 | 34.30639 | 31121 ft | 479 kts | 105° |
| 2026-05-05 12:03 | 39.64500 | 34.34682 | 31614 ft | 475 kts | 106° |
| 2026-05-05 12:03 | 39.63350 | 34.38683 | 32054 ft | 473 kts | 106° |
| 2026-05-05 12:04 | 39.62199 | 34.42685 | 32311 ft | 475 kts | 107° |
| 2026-05-05 12:04 | 39.61042 | 34.46712 | 32520 ft | 477 kts | 107° |
| 2026-05-05 12:04 | 39.59864 | 34.50806 | 32825 ft | 478 kts | 107° |
| 2026-05-05 12:04 | 39.58721 | 34.54775 | 33188 ft | 477 kts | 107° |
| 2026-05-05 12:05 | 39.57560 | 34.58799 | 33527 ft | 476 kts | 108° |
| 2026-05-05 12:05 | 39.56386 | 34.62868 | 33849 ft | 476 kts | 108° |
| 2026-05-05 12:05 | 39.55223 | 34.66888 | 34147 ft | 476 kts | 108° |
| 2026-05-05 12:05 | 39.54060 | 34.70901 | 34389 ft | 476 kts | 108° |
| 2026-05-05 12:06 | 39.52896 | 34.74914 | 34625 ft | 476 kts | 108° |
| 2026-05-05 12:06 | 39.51730 | 34.78928 | 34870 ft | 476 kts | 109° |
| 2026-05-05 12:06 | 39.50563 | 34.82940 | 35112 ft | 476 kts | 109° |
| 2026-05-05 12:06 | 39.49393 | 34.86954 | 35365 ft | 476 kts | 109° |
| 2026-05-05 12:07 | 39.48227 | 34.90951 | 35652 ft | 474 kts | 109° |
| 2026-05-05 12:07 | 39.47061 | 34.94938 | 35927 ft | 473 kts | 110° |
| 2026-05-05 12:07 | 39.45896 | 34.98918 | 36134 ft | 474 kts | 110° |
| 2026-05-05 12:07 | 39.44727 | 35.02905 | 36331 ft | 474 kts | 110° |
| 2026-05-05 12:08 | 39.43555 | 35.06898 | 36563 ft | 474 kts | 110° |
| 2026-05-05 12:08 | 39.42386 | 35.10877 | 36806 ft | 473 kts | 110° |
| 2026-05-05 12:08 | 39.41216 | 35.14851 | 36962 ft | 473 kts | 110° |
| 2026-05-05 12:08 | 39.40043 | 35.18831 | 36943 ft | 473 kts | 110° |
| 2026-05-05 12:09 | 39.37725 | 35.26801 | 36960 ft | 474 kts | 110° |
| 2026-05-05 12:09 | 39.35400 | 35.34848 | 36949 ft | 475 kts | 110° |
| 2026-05-05 12:10 | 39.33082 | 35.42839 | 36942 ft | 475 kts | 110° |
| 2026-05-05 12:10 | 39.30756 | 35.50820 | 36950 ft | 475 kts | 111° |
| 2026-05-05 12:11 | 39.28419 | 35.58806 | 36942 ft | 475 kts | 111° |
| 2026-05-05 12:11 | 39.26082 | 35.66773 | 36932 ft | 475 kts | 111° |
| 2026-05-05 12:12 | 39.23739 | 35.74736 | 36947 ft | 474 kts | 111° |
| 2026-05-05 12:12 | 39.21395 | 35.82678 | 36936 ft | 473 kts | 111° |
| 2026-05-05 12:13 | 39.19056 | 35.90587 | 36935 ft | 472 kts | 111° |
| 2026-05-05 12:13 | 39.16714 | 35.98484 | 36939 ft | 471 kts | 112° |
| 2026-05-05 12:14 | 39.14808 | 36.06556 | 36926 ft | 472 kts | 100° |
| 2026-05-05 12:14 | 39.13782 | 36.14903 | 36923 ft | 472 kts | 99° |
| 2026-05-05 12:15 | 39.12799 | 36.23192 | 36932 ft | 471 kts | 100° |
| 2026-05-05 12:15 | 39.11765 | 36.31527 | 36933 ft | 471 kts | 100° |
| 2026-05-05 12:16 | 39.10701 | 36.39847 | 36933 ft | 471 kts | 100° |
| 2026-05-05 12:16 | 39.09624 | 36.48157 | 36933 ft | 471 kts | 100° |
| 2026-05-05 12:17 | 39.08541 | 36.56477 | 36932 ft | 471 kts | 101° |
| 2026-05-05 12:17 | 39.07454 | 36.64785 | 36935 ft | 471 kts | 101° |
| 2026-05-05 12:18 | 39.06362 | 36.73094 | 36934 ft | 471 kts | 101° |
| 2026-05-05 12:18 | 39.05262 | 36.81413 | 36935 ft | 471 kts | 101° |
| 2026-05-05 12:19 | 39.04158 | 36.89717 | 36927 ft | 472 kts | 101° |
| 2026-05-05 12:19 | 39.03046 | 36.98032 | 36932 ft | 472 kts | 101° |
| 2026-05-05 12:20 | 39.01926 | 37.06354 | 36928 ft | 473 kts | 101° |
| 2026-05-05 12:20 | 39.00799 | 37.14689 | 36919 ft | 473 kts | 101° |
| 2026-05-05 12:21 | 38.99667 | 37.23015 | 36904 ft | 473 kts | 102° |
| 2026-05-05 12:21 | 38.98531 | 37.31321 | 36914 ft | 473 kts | 102° |
| 2026-05-05 12:22 | 38.97387 | 37.39644 | 36914 ft | 473 kts | 102° |
| 2026-05-05 12:22 | 38.96237 | 37.47962 | 36912 ft | 473 kts | 102° |
| 2026-05-05 12:23 | 38.95080 | 37.56282 | 36903 ft | 473 kts | 102° |
| 2026-05-05 12:23 | 38.93917 | 37.64608 | 36912 ft | 473 kts | 102° |
| 2026-05-05 12:24 | 38.92747 | 37.72927 | 36911 ft | 474 kts | 102° |
| 2026-05-05 12:24 | 38.91580 | 37.81189 | 36904 ft | 473 kts | 102° |
| 2026-05-05 12:25 | 38.90400 | 37.89500 | 36905 ft | 473 kts | 102° |
| 2026-05-05 12:25 | 38.89213 | 37.97814 | 36905 ft | 474 kts | 103° |
| 2026-05-05 12:26 | 38.88020 | 38.06121 | 36905 ft | 474 kts | 103° |
| 2026-05-05 12:26 | 38.86820 | 38.14438 | 36911 ft | 474 kts | 103° |
| 2026-05-05 12:27 | 38.85623 | 38.22691 | 36899 ft | 473 kts | 103° |
| 2026-05-05 12:27 | 38.84414 | 38.30984 | 36904 ft | 473 kts | 103° |
| 2026-05-05 12:28 | 38.83198 | 38.39284 | 36903 ft | 474 kts | 103° |
| 2026-05-05 12:28 | 38.81974 | 38.47593 | 36900 ft | 473 kts | 103° |
| 2026-05-05 12:29 | 38.80756 | 38.55821 | 36896 ft | 473 kts | 104° |
| 2026-05-05 12:29 | 38.79521 | 38.64113 | 36912 ft | 473 kts | 104° |
| 2026-05-05 12:30 | 38.78281 | 38.72404 | 36894 ft | 474 kts | 104° |
| 2026-05-05 12:30 | 38.77035 | 38.80701 | 36884 ft | 474 kts | 104° |
| 2026-05-05 12:31 | 38.75792 | 38.88930 | 36896 ft | 474 kts | 104° |
| 2026-05-05 12:31 | 38.74549 | 38.97237 | 36896 ft | 475 kts | 104° |
| 2026-05-05 12:32 | 38.73318 | 39.05555 | 36886 ft | 476 kts | 104° |
| 2026-05-05 12:32 | 38.72080 | 39.13871 | 36888 ft | 476 kts | 104° |
| 2026-05-05 12:33 | 38.70829 | 39.22204 | 36890 ft | 477 kts | 104° |
| 2026-05-05 12:33 | 38.69707 | 39.30530 | 36905 ft | 479 kts | 102° |
| 2026-05-05 12:34 | 38.68669 | 39.38965 | 36910 ft | 480 kts | 102° |
| 2026-05-05 12:34 | 38.67617 | 39.47409 | 36911 ft | 481 kts | 102° |
| 2026-05-05 12:35 | 38.66537 | 39.55867 | 36915 ft | 482 kts | 103° |
| 2026-05-05 12:35 | 38.65442 | 39.64333 | 36911 ft | 482 kts | 103° |
| 2026-05-05 12:36 | 38.64350 | 39.72726 | 36909 ft | 481 kts | 103° |
| 2026-05-05 12:36 | 38.63248 | 39.81151 | 36934 ft | 481 kts | 103° |
| 2026-05-05 12:37 | 38.62134 | 39.89609 | 36911 ft | 484 kts | 103° |
| 2026-05-05 12:37 | 38.61014 | 39.98081 | 36918 ft | 482 kts | 103° |
| 2026-05-05 12:38 | 38.59902 | 40.06454 | 36926 ft | 479 kts | 103° |
| 2026-05-05 12:38 | 38.58782 | 40.14831 | 36929 ft | 477 kts | 103° |
| 2026-05-05 12:39 | 38.57658 | 40.23183 | 36909 ft | 476 kts | 103° |
| 2026-05-05 12:39 | 38.56534 | 40.31494 | 36926 ft | 474 kts | 103° |
| 2026-05-05 12:40 | 38.55402 | 40.39807 | 36920 ft | 474 kts | 104° |
| 2026-05-05 12:40 | 38.54303 | 40.48067 | 36919 ft | 476 kts | 103° |
| 2026-05-05 12:41 | 38.53228 | 40.56421 | 36932 ft | 477 kts | 103° |
| 2026-05-05 12:41 | 38.52143 | 40.64792 | 36921 ft | 479 kts | 103° |
| 2026-05-05 12:42 | 38.51038 | 40.73192 | 36900 ft | 480 kts | 104° |
| 2026-05-05 12:42 | 38.49936 | 40.81535 | 36939 ft | 480 kts | 104° |
| 2026-05-05 12:43 | 38.48811 | 40.90003 | 36933 ft | 482 kts | 104° |
| 2026-05-05 12:43 | 38.47692 | 40.98385 | 36930 ft | 482 kts | 104° |
| 2026-05-05 12:44 | 38.46559 | 41.06824 | 36912 ft | 484 kts | 104° |
| 2026-05-05 12:44 | 38.45357 | 41.15256 | 36924 ft | 483 kts | 105° |
| 2026-05-05 12:45 | 38.44084 | 41.23659 | 36921 ft | 482 kts | 105° |
| 2026-05-05 12:45 | 38.42819 | 41.31997 | 36909 ft | 481 kts | 105° |
| 2026-05-05 12:46 | 38.41561 | 41.40330 | 36913 ft | 478 kts | 105° |
| 2026-05-05 12:46 | 38.40304 | 41.48639 | 36918 ft | 477 kts | 105° |
| 2026-05-05 12:47 | 38.39044 | 41.56931 | 36928 ft | 474 kts | 105° |
| 2026-05-05 12:47 | 38.37791 | 41.65115 | 36932 ft | 474 kts | 106° |
| 2026-05-05 12:48 | 38.36525 | 41.73368 | 36931 ft | 476 kts | 106° |
| 2026-05-05 12:48 | 38.35204 | 41.81643 | 36937 ft | 476 kts | 110° |
| 2026-05-05 12:49 | 38.32759 | 41.89376 | 36937 ft | 470 kts | 121° |
| 2026-05-05 12:49 | 38.29907 | 41.96884 | 36931 ft | 472 kts | 122° |
| 2026-05-05 12:50 | 38.27080 | 42.04379 | 36923 ft | 474 kts | 121° |
| 2026-05-05 12:50 | 38.25659 | 42.08185 | 36647 ft | 477 kts | 121° |
| 2026-05-05 12:50 | 38.24245 | 42.11995 | 36401 ft | 473 kts | 121° |
| 2026-05-05 12:51 | 38.22853 | 42.15760 | 36135 ft | 468 kts | 121° |
| 2026-05-05 12:51 | 38.21935 | 42.18241 | 35987 ft | 468 kts | 121° |
| 2026-05-05 12:51 | 38.20542 | 42.21992 | 35730 ft | 471 kts | 122° |
| 2026-05-05 12:51 | 38.18684 | 42.26985 | 35417 ft | 473 kts | 122° |
| 2026-05-05 12:52 | 38.17276 | 42.30762 | 35184 ft | 474 kts | 122° |
| 2026-05-05 12:52 | 38.15863 | 42.34548 | 34942 ft | 474 kts | 122° |
| 2026-05-05 12:52 | 38.14450 | 42.38335 | 34718 ft | 474 kts | 122° |
| 2026-05-05 12:52 | 38.13036 | 42.42117 | 34491 ft | 474 kts | 122° |
| 2026-05-05 12:53 | 38.12101 | 42.44616 | 34326 ft | 474 kts | 122° |
| 2026-05-05 12:53 | 38.10685 | 42.48396 | 34106 ft | 473 kts | 122° |
| 2026-05-05 12:53 | 38.09272 | 42.52162 | 33872 ft | 472 kts | 122° |
| 2026-05-05 12:53 | 38.07896 | 42.55825 | 33618 ft | 472 kts | 122° |
| 2026-05-05 12:54 | 38.04608 | 42.64557 | 32701 ft | 471 kts | 122° |
| 2026-05-05 12:54 | 38.03192 | 42.68310 | 31955 ft | 471 kts | 122° |
| 2026-05-05 12:54 | 38.02256 | 42.70790 | 31437 ft | 471 kts | 122° |
| 2026-05-05 12:55 | 38.00840 | 42.74537 | 30665 ft | 471 kts | 122° |
| 2026-05-05 12:55 | 37.99423 | 42.78280 | 30035 ft | 468 kts | 122° |
| 2026-05-05 12:55 | 37.98020 | 42.81988 | 29356 ft | 465 kts | 122° |
| 2026-05-05 12:55 | 37.96914 | 42.84908 | 28717 ft | 463 kts | 121° |
| 2026-05-05 12:56 | 37.95103 | 42.89675 | 27779 ft | 460 kts | 121° |
| 2026-05-05 12:56 | 37.93983 | 42.92623 | 27216 ft | 457 kts | 121° |
| 2026-05-05 12:56 | 37.93204 | 42.94673 | 26872 ft | 455 kts | 122° |
| 2026-05-05 12:56 | 37.92069 | 42.97656 | 26206 ft | 448 kts | 122° |
| 2026-05-05 12:57 | 37.90877 | 43.00774 | 25259 ft | 456 kts | 121° |
| 2026-05-05 12:57 | 37.89663 | 43.03944 | 24502 ft | 460 kts | 121° |
| 2026-05-05 12:57 | 37.88349 | 43.07381 | 23878 ft | 455 kts | 121° |
| 2026-05-05 12:57 | 37.87134 | 43.10566 | 23160 ft | 445 kts | 121° |
| 2026-05-05 12:58 | 37.85991 | 43.13553 | 22352 ft | 447 kts | 120° |
| 2026-05-05 12:58 | 37.85152 | 43.15735 | 21877 ft | 445 kts | 122° |
| 2026-05-05 12:58 | 37.84022 | 43.18672 | 21366 ft | 433 kts | 122° |
| 2026-05-05 12:58 | 37.82971 | 43.21430 | 20673 ft | 424 kts | 122° |
| 2026-05-05 12:59 | 37.81896 | 43.24854 | 19693 ft | 426 kts | 112° |
| 2026-05-05 12:59 | 37.81280 | 43.28536 | 18772 ft | 432 kts | 101° |
| 2026-05-05 12:59 | 37.81076 | 43.31752 | 18125 ft | 428 kts | 99° |
| 2026-05-05 13:00 | 37.80698 | 43.38268 | 17206 ft | 415 kts | 99° |
| 2026-05-05 13:00 | 37.80480 | 43.41819 | 16940 ft | 402 kts | 99° |
| 2026-05-05 13:01 | 37.79879 | 43.51207 | 16196 ft | 374 kts | 100° |
| 2026-05-05 13:01 | 37.79658 | 43.54440 | 15944 ft | 364 kts | 100° |
| 2026-05-05 13:01 | 37.79442 | 43.57594 | 15690 ft | 358 kts | 100° |
| 2026-05-05 13:01 | 37.79219 | 43.60712 | 15418 ft | 354 kts | 100° |
| 2026-05-05 13:02 | 37.79013 | 43.63629 | 15196 ft | 350 kts | 100° |
| 2026-05-05 13:02 | 37.78802 | 43.66672 | 14938 ft | 347 kts | 100° |
| 2026-05-05 13:02 | 37.78600 | 43.69702 | 14605 ft | 344 kts | 99° |
| 2026-05-05 13:02 | 37.78391 | 43.72710 | 14266 ft | 344 kts | 99° |
| 2026-05-05 13:03 | 37.78182 | 43.75665 | 13886 ft | 345 kts | 99° |
| 2026-05-05 13:03 | 37.77975 | 43.78664 | 13699 ft | 339 kts | 98° |
| 2026-05-05 13:03 | 37.77768 | 43.81603 | 13530 ft | 333 kts | 99° |
| 2026-05-05 13:03 | 37.77564 | 43.84495 | 13358 ft | 327 kts | 98° |
| 2026-05-05 13:04 | 37.77366 | 43.87327 | 13221 ft | 319 kts | 99° |
| 2026-05-05 13:04 | 37.77172 | 43.90088 | 13098 ft | 312 kts | 99° |
| 2026-05-05 13:04 | 37.76760 | 43.92712 | 12952 ft | 297 kts | 117° |
| 2026-05-05 13:04 | 37.75628 | 43.94842 | 12462 ft | 293 kts | 139° |
| 2026-05-05 13:05 | 37.74105 | 43.96564 | 11995 ft | 296 kts | 143° |
| 2026-05-05 13:05 | 37.72517 | 43.98249 | 11467 ft | 299 kts | 143° |
| 2026-05-05 13:05 | 37.70940 | 43.99930 | 10998 ft | 294 kts | 142° |
| 2026-05-05 13:05 | 37.69457 | 44.01664 | 10568 ft | 286 kts | 139° |
| 2026-05-05 13:06 | 37.68050 | 44.03374 | 10246 ft | 276 kts | 139° |
| 2026-05-05 13:06 | 37.66698 | 44.05010 | 9842 ft | 269 kts | 140° |
| 2026-05-05 13:06 | 37.65382 | 44.06586 | 9499 ft | 250 kts | 139° |
| 2026-05-05 13:06 | 37.64193 | 44.08035 | 9197 ft | 226 kts | 135° |
| 2026-05-05 13:07 | 37.63227 | 44.09512 | 8854 ft | 211 kts | 133° |
| 2026-05-05 13:07 | 37.62349 | 44.10939 | 8541 ft | 201 kts | 133° |
| 2026-05-05 13:07 | 37.61528 | 44.12288 | 8293 ft | 187 kts | 132° |
| 2026-05-05 13:07 | 37.60770 | 44.13526 | 8002 ft | 171 kts | 131° |
| 2026-05-05 13:08 | 37.60086 | 44.14636 | 7769 ft | 155 kts | 132° |
| 2026-05-05 13:08 | 37.59436 | 44.15677 | 7538 ft | 152 kts | 133° |
| 2026-05-05 13:08 | 37.58854 | 44.16605 | 7361 ft | 151 kts | 132° |
| 2026-05-05 13:08 | 37.58200 | 44.17654 | 7115 ft | 151 kts | 134° |
| 2026-05-05 13:09 | 37.57558 | 44.18660 | 6847 ft | 144 kts | 133° |
| 2026-05-05 13:09 | 37.56910 | 44.19597 | 6564 ft | 138 kts | 136° |
| 2026-05-05 13:09 | 37.56383 | 44.20560 | 6384 ft | 132 kts | 127° |
| 2026-05-05 13:09 | 37.55926 | 44.21573 | 6233 ft | 135 kts | 121° |
| 2026-05-05 13:10 | 37.55473 | 44.22653 | 6117 ft | 139 kts | 124° |
| 2026-05-05 13:10 | 37.55050 | 44.23616 | 6090 ft | 106 kts | 116° |
| 2026-05-05 13:10 | 37.54790 | 44.24228 | 6090 ft | 65 kts | 118° |
| 2026-05-05 13:10 | 37.54594 | 44.24688 | 6092 ft | 55 kts | 118° |
| 2026-05-05 13:11 | 37.54425 | 44.25085 | 6093 ft | 48 kts | 118° |
| 2026-05-05 13:11 | 37.54340 | 44.25287 | 6094 ft | 9 kts | 115° |
| 2026-05-05 13:11 | 37.54340 | 44.25363 | 6090 ft | 9 kts | 66° |
| 2026-05-05 13:11 | 37.54385 | 44.25412 | 6095 ft | 9 kts | 26° |
| 2026-05-05 13:12 | 37.54437 | 44.25445 | 6092 ft | 8 kts | 26° |
| 2026-05-05 13:12 | 37.54488 | 44.25477 | 6094 ft | 8 kts | 27° |
| 2026-05-05 13:12 | 37.54536 | 44.25510 | 6090 ft | 8 kts | 29° |
| 2026-05-05 13:12 | 37.54580 | 44.25540 | 6094 ft | 5 kts | 28° |
| 2026-05-05 13:13 | 37.54588 | 44.25545 | 6092 ft | 1 kts | 28° |
| 2026-05-05 13:13 | 37.54591 | 44.25547 | 6091 ft | 0 kts | 29° |